Sprague River, OR (97639)

5:25 PM PST on February 12, 2016 (GMT -0800)
Soaring Eagles Ranch | | Change Station
CLOSE
Current Station
Personal Weather Station
Location: Chiloquin, OR
Elevation: 4314 ft
Nearby Weather Stations

Elev 4314 ft 42.58 °N, 121.74 °W | Updated 8 minutes ago

Mostly Cloudy
Mostly Cloudy
48.9 °F
Feels Like 47 °F
N
4.7
Wind Variable Wind from West

Today
High -- | Low -- °F
--% Chance of Precip.
Yesterday
High -- | Low -- °F
Precip. -- in
Pressure 30.13 in
Visibility 10.0 miles
Clouds Clear
Windchill 47 °F
Dew Point 39 °F
Humidity 68%
Rainfall 0.00 in
Snow Depth Not available.
7:07 AM 5:33 PM
Waxing Crescent, 25% visible
METAR KLMT 130053Z AUTO 26015KT 10SM CLR 14/02 A3017 RMK AO2 SLP203 T01390017
Pressure 30.13 in
Visibility 10.0 miles
Clouds Clear
Windchill 47 °F
Dew Point 39 °F
Humidity 68%
Rainfall 0.00 in
Snow Depth Not available.
7:07 AM 5:33 PM
Waxing Crescent, 25% visible
METAR KLMT 130053Z AUTO 26015KT 10SM CLR 14/02 A3017 RMK AO2 SLP203 T01390017

10-Day Weather Forecast

Almanac

Astronomy

Feb. 12, 2016 Rise Set
Actual Time
Civil Twilight
Nautical Twilight
Astronomical Twilight
Moon
Length of Visible Light
Length of Day
Tomorrow will be .
, % of the Moon is Illuminated

Today's Extremes

State Highs State Lows

Community

WunderPhotos

Upload Photos

1,892,455 photos uploaded!

WunderBlog® & News

Nearby

Air Quality

  Air Quality AQ Index Pollutant
Not available.

Snow Depth

Station Depth Elevation

Earthquake Activity

City Distance Mag. Time & Date
Minimum magnitude displayed is 2.5.

Coastal Water Temperatures

Place Temperature

Stations

Nearby Weather Stations

Station Location Temp. Windchill Dew Point Humidity Wind Precip. Elev Updated Type
                   

Watches & Warnings

There are currently no watches in effect.